THY1NY LTFM-LTAI
Flight info
| Callsign | THY1NY |
|---|---|
| Flight time | 1h 11m |
| Altitude | 37000 |
| Route | RATVU1D/35L RATVU UT35 BABSA |
| Aircraft | B77W/H-SDE1E2E3FGHIJ2J3J4J5M1RWXY/LB1D1 |
Departure
| Time | 2026-05-07 17:11 |
|---|---|
| Airport | İstanbul Airport (LTFM) |
Arrival
| Time | 2026-05-07 18:23 |
|---|---|
| Airport | Antalya International Airport (LTAI) |
| Time | Latitude | Longitude | Altitude | Speed | Heading |
|---|---|---|---|---|---|
| 2026-05-07 16:33 | 41.26242 | 28.73626 | 338 ft | 0 kts | 71° |
| 2026-05-07 16:36 | 41.26243 | 28.73628 | 338 ft | 0 kts | 71° |
| 2026-05-07 17:01 | 41.26243 | 28.73626 | 339 ft | 2 kts | 71° |
| 2026-05-07 17:01 | 41.26237 | 28.73599 | 333 ft | 1 kts | 78° |
| 2026-05-07 17:01 | 41.26231 | 28.73567 | 333 ft | 4 kts | 80° |
| 2026-05-07 17:01 | 41.26235 | 28.73541 | 328 ft | 4 kts | 123° |
| 2026-05-07 17:02 | 41.26252 | 28.73513 | 336 ft | 4 kts | 140° |
| 2026-05-07 17:02 | 41.26275 | 28.73495 | 333 ft | 4 kts | 162° |
| 2026-05-07 17:02 | 41.26301 | 28.73487 | 333 ft | 4 kts | 169° |
| 2026-05-07 17:02 | 41.26313 | 28.73484 | 333 ft | 0 kts | 161° |
| 2026-05-07 17:05 | 41.26311 | 28.73485 | 333 ft | 1 kts | 161° |
| 2026-05-07 17:06 | 41.26302 | 28.73489 | 333 ft | 2 kts | 161° |
| 2026-05-07 17:06 | 41.26287 | 28.73496 | 333 ft | 3 kts | 161° |
| 2026-05-07 17:06 | 41.26265 | 28.73501 | 333 ft | 3 kts | 179° |
| 2026-05-07 17:06 | 41.26243 | 28.73489 | 338 ft | 4 kts | 215° |
| 2026-05-07 17:07 | 41.26227 | 28.73450 | 334 ft | 7 kts | 251° |
| 2026-05-07 17:07 | 41.26221 | 28.73372 | 335 ft | 10 kts | 266° |
| 2026-05-07 17:07 | 41.26219 | 28.73260 | 336 ft | 13 kts | 269° |
| 2026-05-07 17:07 | 41.26218 | 28.73134 | 336 ft | 14 kts | 269° |
| 2026-05-07 17:08 | 41.26216 | 28.73017 | 336 ft | 0 kts | 269° |
| 2026-05-07 17:08 | 41.26216 | 28.73013 | 334 ft | 1 kts | 269° |
| 2026-05-07 17:08 | 41.26216 | 28.73000 | 335 ft | 2 kts | 269° |
| 2026-05-07 17:08 | 41.26216 | 28.72972 | 336 ft | 4 kts | 269° |
| 2026-05-07 17:09 | 41.26215 | 28.72924 | 337 ft | 7 kts | 269° |
| 2026-05-07 17:09 | 41.26213 | 28.72811 | 339 ft | 18 kts | 269° |
| 2026-05-07 17:09 | 41.26211 | 28.72670 | 339 ft | 3 kts | 269° |
| 2026-05-07 17:09 | 41.26210 | 28.72637 | 337 ft | 5 kts | 269° |
| 2026-05-07 17:10 | 41.26210 | 28.72577 | 334 ft | 7 kts | 273° |
| 2026-05-07 17:10 | 41.26241 | 28.72532 | 335 ft | 7 kts | 341° |
| 2026-05-07 17:10 | 41.26297 | 28.72525 | 336 ft | 17 kts | 356° |
| 2026-05-07 17:10 | 41.26682 | 28.72514 | 338 ft | 99 kts | 359° |
| 2026-05-07 17:11 | 41.27638 | 28.72489 | 364 ft | 170 kts | 358° |
| 2026-05-07 17:11 | 41.28891 | 28.72484 | 924 ft | 185 kts | 1° |
| 2026-05-07 17:11 | 41.30183 | 28.72526 | 1706 ft | 193 kts | 0° |
| 2026-05-07 17:11 | 41.31534 | 28.72502 | 2465 ft | 200 kts | 355° |
| 2026-05-07 17:12 | 41.33025 | 28.72492 | 2783 ft | 230 kts | 357° |
| 2026-05-07 17:12 | 41.34720 | 28.72542 | 3109 ft | 254 kts | 352° |
| 2026-05-07 17:12 | 41.36382 | 28.71805 | 3879 ft | 255 kts | 323° |
| 2026-05-07 17:12 | 41.37589 | 28.70091 | 4809 ft | 257 kts | 298° |
| 2026-05-07 17:13 | 41.38212 | 28.67855 | 5670 ft | 261 kts | 278° |
| 2026-05-07 17:13 | 41.38236 | 28.65426 | 6493 ft | 266 kts | 268° |
| 2026-05-07 17:13 | 41.38169 | 28.62933 | 7365 ft | 271 kts | 269° |
| 2026-05-07 17:13 | 41.38114 | 28.60423 | 8305 ft | 271 kts | 267° |
| 2026-05-07 17:14 | 41.37623 | 28.57978 | 9023 ft | 282 kts | 241° |
| 2026-05-07 17:14 | 41.36283 | 28.56056 | 9912 ft | 289 kts | 214° |
| 2026-05-07 17:14 | 41.34391 | 28.55064 | 10598 ft | 304 kts | 189° |
| 2026-05-07 17:14 | 41.32176 | 28.54996 | 10881 ft | 333 kts | 179° |
| 2026-05-07 17:15 | 41.29753 | 28.55117 | 11100 ft | 363 kts | 179° |
| 2026-05-07 17:15 | 41.27157 | 28.55241 | 11590 ft | 377 kts | 176° |
| 2026-05-07 17:15 | 41.24619 | 28.56149 | 12240 ft | 391 kts | 153° |
| 2026-05-07 17:15 | 41.22424 | 28.58291 | 13358 ft | 392 kts | 136° |
| 2026-05-07 17:16 | 41.20468 | 28.60875 | 14276 ft | 401 kts | 135° |
| 2026-05-07 17:16 | 41.18476 | 28.63507 | 15192 ft | 408 kts | 135° |
| 2026-05-07 17:16 | 41.16386 | 28.66094 | 16129 ft | 414 kts | 141° |
| 2026-05-07 17:16 | 41.14021 | 28.68319 | 17009 ft | 421 kts | 149° |
| 2026-05-07 17:17 | 41.11399 | 28.70119 | 17863 ft | 428 kts | 156° |
| 2026-05-07 17:17 | 41.08650 | 28.71707 | 18687 ft | 435 kts | 158° |
| 2026-05-07 17:17 | 41.05843 | 28.73296 | 19457 ft | 441 kts | 158° |
| 2026-05-07 17:17 | 41.03001 | 28.74894 | 20244 ft | 447 kts | 158° |
| 2026-05-07 17:18 | 41.00118 | 28.76516 | 20988 ft | 454 kts | 158° |
| 2026-05-07 17:18 | 40.97193 | 28.78166 | 21745 ft | 460 kts | 158° |
| 2026-05-07 17:18 | 40.94225 | 28.79846 | 22463 ft | 467 kts | 158° |
| 2026-05-07 17:18 | 40.91221 | 28.81550 | 23160 ft | 473 kts | 158° |
| 2026-05-07 17:19 | 40.88166 | 28.83285 | 23843 ft | 480 kts | 157° |
| 2026-05-07 17:19 | 40.85129 | 28.85010 | 24135 ft | 483 kts | 158° |
| 2026-05-07 17:19 | 40.82038 | 28.86765 | 24095 ft | 483 kts | 158° |
| 2026-05-07 17:19 | 40.78947 | 28.88517 | 24101 ft | 482 kts | 158° |
| 2026-05-07 17:20 | 40.75867 | 28.90262 | 24101 ft | 482 kts | 158° |
| 2026-05-07 17:20 | 40.72787 | 28.92005 | 24103 ft | 482 kts | 158° |
| 2026-05-07 17:20 | 40.69703 | 28.93747 | 24104 ft | 482 kts | 158° |
| 2026-05-07 17:20 | 40.66615 | 28.95491 | 24100 ft | 483 kts | 158° |
| 2026-05-07 17:21 | 40.63520 | 28.97236 | 24105 ft | 484 kts | 157° |
| 2026-05-07 17:21 | 40.60418 | 28.98983 | 24109 ft | 485 kts | 157° |
| 2026-05-07 17:21 | 40.57312 | 29.00731 | 24105 ft | 486 kts | 158° |
| 2026-05-07 17:21 | 40.54202 | 29.02479 | 24100 ft | 486 kts | 158° |
| 2026-05-07 17:22 | 40.51089 | 29.04227 | 24097 ft | 486 kts | 158° |
| 2026-05-07 17:22 | 40.47972 | 29.05975 | 24098 ft | 486 kts | 158° |
| 2026-05-07 17:22 | 40.44861 | 29.07719 | 24106 ft | 486 kts | 158° |
| 2026-05-07 17:22 | 40.41795 | 29.09435 | 24102 ft | 485 kts | 158° |
| 2026-05-07 17:23 | 40.38693 | 29.11171 | 24105 ft | 485 kts | 158° |
| 2026-05-07 17:23 | 40.35591 | 29.12904 | 24099 ft | 484 kts | 158° |
| 2026-05-07 17:23 | 40.32491 | 29.14635 | 24110 ft | 484 kts | 158° |
| 2026-05-07 17:23 | 40.29392 | 29.16363 | 24106 ft | 483 kts | 158° |
| 2026-05-07 17:24 | 40.26297 | 29.18087 | 24102 ft | 483 kts | 158° |
| 2026-05-07 17:24 | 40.23197 | 29.19812 | 24105 ft | 483 kts | 158° |
| 2026-05-07 17:24 | 40.20106 | 29.21531 | 24109 ft | 483 kts | 158° |
| 2026-05-07 17:24 | 40.17012 | 29.23249 | 24163 ft | 485 kts | 158° |
| 2026-05-07 17:25 | 40.13885 | 29.24984 | 24767 ft | 489 kts | 158° |
| 2026-05-07 17:25 | 40.10782 | 29.26705 | 25422 ft | 493 kts | 158° |
| 2026-05-07 17:25 | 40.07609 | 29.28462 | 26060 ft | 497 kts | 158° |
| 2026-05-07 17:25 | 40.04408 | 29.30232 | 26659 ft | 502 kts | 158° |
| 2026-05-07 17:26 | 40.01180 | 29.32018 | 27208 ft | 505 kts | 158° |
| 2026-05-07 17:26 | 39.97927 | 29.33814 | 27777 ft | 509 kts | 158° |
| 2026-05-07 17:26 | 39.94645 | 29.35625 | 28297 ft | 513 kts | 158° |
| 2026-05-07 17:26 | 39.91344 | 29.37443 | 28787 ft | 517 kts | 158° |
| 2026-05-07 17:27 | 39.88057 | 29.39253 | 29282 ft | 520 kts | 158° |
| 2026-05-07 17:27 | 39.84709 | 29.41095 | 29744 ft | 524 kts | 158° |
| 2026-05-07 17:27 | 39.81344 | 29.42945 | 30208 ft | 526 kts | 158° |
| 2026-05-07 17:27 | 39.77975 | 29.44795 | 30734 ft | 525 kts | 158° |
| 2026-05-07 17:28 | 39.74617 | 29.46638 | 31346 ft | 522 kts | 158° |
| 2026-05-07 17:28 | 39.71280 | 29.48469 | 31958 ft | 519 kts | 159° |
| 2026-05-07 17:28 | 39.67956 | 29.50290 | 32510 ft | 517 kts | 159° |
| 2026-05-07 17:28 | 39.64661 | 29.52093 | 33324 ft | 509 kts | 159° |
| 2026-05-07 17:29 | 39.61424 | 29.53821 | 34350 ft | 497 kts | 161° |
| 2026-05-07 17:29 | 39.58239 | 29.55436 | 35283 ft | 484 kts | 162° |
| 2026-05-07 17:29 | 39.55175 | 29.56951 | 36262 ft | 472 kts | 162° |
| 2026-05-07 17:29 | 39.52125 | 29.58448 | 36978 ft | 467 kts | 162° |
| 2026-05-07 17:30 | 39.49074 | 29.59945 | 37185 ft | 472 kts | 162° |
| 2026-05-07 17:30 | 39.45971 | 29.61472 | 37163 ft | 481 kts | 162° |
| 2026-05-07 17:30 | 39.39616 | 29.64621 | 37177 ft | 497 kts | 161° |
| 2026-05-07 17:31 | 39.33071 | 29.67878 | 37165 ft | 510 kts | 161° |
| 2026-05-07 17:31 | 39.26405 | 29.71194 | 37155 ft | 513 kts | 161° |
| 2026-05-07 17:32 | 39.19730 | 29.74506 | 37155 ft | 513 kts | 161° |
| 2026-05-07 17:32 | 39.14194 | 29.77245 | 37158 ft | 512 kts | 161° |
| 2026-05-07 17:33 | 39.06471 | 29.81057 | 37166 ft | 511 kts | 161° |
| 2026-05-07 17:33 | 38.99829 | 29.84327 | 37166 ft | 510 kts | 161° |
| 2026-05-07 17:34 | 38.93204 | 29.87584 | 37160 ft | 509 kts | 162° |
| 2026-05-07 17:34 | 38.86583 | 29.90821 | 37166 ft | 509 kts | 162° |
| 2026-05-07 17:35 | 38.79940 | 29.93980 | 37178 ft | 509 kts | 162° |
| 2026-05-07 17:35 | 38.73335 | 29.97098 | 37169 ft | 510 kts | 162° |
| 2026-05-07 17:36 | 38.66670 | 30.00251 | 37183 ft | 510 kts | 162° |
| 2026-05-07 17:36 | 38.63311 | 30.01840 | 36595 ft | 518 kts | 162° |
| 2026-05-07 17:36 | 38.59920 | 30.03442 | 35858 ft | 520 kts | 162° |
| 2026-05-07 17:37 | 38.56525 | 30.05047 | 35015 ft | 520 kts | 162° |
| 2026-05-07 17:37 | 38.53133 | 30.06649 | 34149 ft | 521 kts | 162° |
| 2026-05-07 17:37 | 38.49730 | 30.08254 | 33140 ft | 521 kts | 162° |
| 2026-05-07 17:37 | 38.46318 | 30.09861 | 32162 ft | 522 kts | 162° |
| 2026-05-07 17:38 | 38.42953 | 30.11445 | 31195 ft | 523 kts | 161° |
| 2026-05-07 17:38 | 38.39537 | 30.13051 | 30321 ft | 523 kts | 161° |
| 2026-05-07 17:38 | 38.36142 | 30.14648 | 29570 ft | 516 kts | 161° |
| 2026-05-07 17:38 | 38.32787 | 30.16219 | 28876 ft | 510 kts | 161° |
| 2026-05-07 17:39 | 38.29466 | 30.17738 | 28213 ft | 504 kts | 162° |
| 2026-05-07 17:39 | 38.26182 | 30.19223 | 27545 ft | 498 kts | 162° |
| 2026-05-07 17:39 | 38.22934 | 30.20696 | 26912 ft | 493 kts | 161° |
| 2026-05-07 17:39 | 38.20796 | 30.21676 | 26488 ft | 490 kts | 161° |
| 2026-05-07 17:40 | 38.16605 | 30.23609 | 26125 ft | 473 kts | 161° |
| 2026-05-07 17:40 | 38.13552 | 30.25017 | 25928 ft | 460 kts | 161° |
| 2026-05-07 17:40 | 38.11528 | 30.25949 | 25793 ft | 452 kts | 161° |
| 2026-05-07 17:40 | 38.08643 | 30.27274 | 25609 ft | 441 kts | 161° |
| 2026-05-07 17:41 | 38.05795 | 30.28580 | 25429 ft | 430 kts | 161° |
| 2026-05-07 17:41 | 38.03015 | 30.29854 | 25262 ft | 420 kts | 161° |
| 2026-05-07 17:41 | 38.00415 | 30.31435 | 25057 ft | 409 kts | 144° |
| 2026-05-07 17:41 | 37.98228 | 30.33650 | 24924 ft | 398 kts | 140° |
| 2026-05-07 17:42 | 37.96097 | 30.35879 | 24762 ft | 397 kts | 140° |
| 2026-05-07 17:42 | 37.93951 | 30.38069 | 24599 ft | 396 kts | 141° |
| 2026-05-07 17:42 | 37.91782 | 30.40232 | 24443 ft | 395 kts | 142° |
| 2026-05-07 17:42 | 37.89617 | 30.42370 | 24276 ft | 394 kts | 142° |
| 2026-05-07 17:43 | 37.87374 | 30.44226 | 24091 ft | 390 kts | 158° |
| 2026-05-07 17:43 | 37.84765 | 30.45022 | 23950 ft | 384 kts | 181° |
| 2026-05-07 17:43 | 37.82137 | 30.44698 | 23802 ft | 377 kts | 198° |
| 2026-05-07 17:43 | 37.79719 | 30.43519 | 23612 ft | 369 kts | 216° |
| 2026-05-07 17:44 | 37.77601 | 30.41717 | 23451 ft | 366 kts | 220° |
| 2026-05-07 17:44 | 37.75521 | 30.39859 | 23291 ft | 367 kts | 219° |
| 2026-05-07 17:44 | 37.73418 | 30.38025 | 23125 ft | 367 kts | 219° |
| 2026-05-07 17:44 | 37.71309 | 30.36212 | 22976 ft | 367 kts | 219° |
| 2026-05-07 17:45 | 37.69223 | 30.34435 | 22824 ft | 366 kts | 218° |
| 2026-05-07 17:45 | 37.67107 | 30.32634 | 22669 ft | 365 kts | 218° |
| 2026-05-07 17:45 | 37.65000 | 30.30845 | 22518 ft | 364 kts | 218° |
| 2026-05-07 17:45 | 37.62899 | 30.29061 | 22333 ft | 363 kts | 218° |
| 2026-05-07 17:46 | 37.60713 | 30.27504 | 22176 ft | 364 kts | 202° |
| 2026-05-07 17:46 | 37.58217 | 30.26923 | 22037 ft | 364 kts | 188° |
| 2026-05-07 17:46 | 37.55686 | 30.26635 | 21916 ft | 366 kts | 188° |
| 2026-05-07 17:46 | 37.53142 | 30.26331 | 21755 ft | 369 kts | 189° |
| 2026-05-07 17:47 | 37.50615 | 30.26007 | 21599 ft | 369 kts | 189° |
| 2026-05-07 17:47 | 37.48066 | 30.25663 | 21449 ft | 368 kts | 189° |
| 2026-05-07 17:47 | 37.45513 | 30.25312 | 21274 ft | 367 kts | 189° |
| 2026-05-07 17:47 | 37.42981 | 30.24962 | 21123 ft | 365 kts | 189° |
| 2026-05-07 17:48 | 37.40458 | 30.24614 | 20953 ft | 364 kts | 189° |
| 2026-05-07 17:48 | 37.37944 | 30.24269 | 20809 ft | 363 kts | 189° |
| 2026-05-07 17:48 | 37.35436 | 30.23924 | 20657 ft | 361 kts | 189° |
| 2026-05-07 17:48 | 37.32940 | 30.23580 | 20505 ft | 360 kts | 189° |
| 2026-05-07 17:49 | 37.30455 | 30.23239 | 20361 ft | 358 kts | 189° |
| 2026-05-07 17:49 | 37.28010 | 30.22903 | 20200 ft | 357 kts | 189° |
| 2026-05-07 17:49 | 37.25546 | 30.22565 | 20075 ft | 356 kts | 189° |
| 2026-05-07 17:49 | 37.23082 | 30.22228 | 19908 ft | 356 kts | 189° |
| 2026-05-07 17:50 | 37.20624 | 30.21891 | 19760 ft | 354 kts | 189° |
| 2026-05-07 17:50 | 37.18176 | 30.21556 | 19616 ft | 353 kts | 189° |
| 2026-05-07 17:50 | 37.15737 | 30.21586 | 19442 ft | 353 kts | 169° |
| 2026-05-07 17:50 | 37.13479 | 30.22783 | 19315 ft | 355 kts | 145° |
| 2026-05-07 17:51 | 37.11760 | 30.24932 | 19201 ft | 352 kts | 122° |
| 2026-05-07 17:51 | 37.10719 | 30.27643 | 19039 ft | 340 kts | 102° |
| 2026-05-07 17:51 | 37.10373 | 30.30503 | 18876 ft | 323 kts | 89° |
| 2026-05-07 17:51 | 37.10697 | 30.33186 | 18716 ft | 304 kts | 62° |
| 2026-05-07 17:52 | 37.11832 | 30.35354 | 18625 ft | 295 kts | 40° |
| 2026-05-07 17:52 | 37.13418 | 30.36935 | 18520 ft | 290 kts | 27° |
| 2026-05-07 17:52 | 37.15226 | 30.37983 | 18369 ft | 282 kts | 8° |
| 2026-05-07 17:52 | 37.17130 | 30.38283 | 18257 ft | 278 kts | 1° |
| 2026-05-07 17:53 | 37.19063 | 30.38505 | 18135 ft | 279 kts | 2° |
| 2026-05-07 17:53 | 37.20993 | 30.38732 | 18020 ft | 279 kts | 2° |
| 2026-05-07 17:53 | 37.22923 | 30.38973 | 17889 ft | 278 kts | 2° |
| 2026-05-07 17:53 | 37.24847 | 30.39225 | 17781 ft | 277 kts | 2° |
| 2026-05-07 17:54 | 37.26762 | 30.39479 | 17658 ft | 276 kts | 2° |
| 2026-05-07 17:54 | 37.28670 | 30.39735 | 17536 ft | 275 kts | 2° |
| 2026-05-07 17:54 | 37.30490 | 30.39979 | 17432 ft | 273 kts | 3° |
| 2026-05-07 17:54 | 37.32230 | 30.40213 | 17329 ft | 272 kts | 2° |
| 2026-05-07 17:55 | 37.34110 | 30.40465 | 17218 ft | 271 kts | 3° |
| 2026-05-07 17:55 | 37.35990 | 30.40717 | 17096 ft | 271 kts | 3° |
| 2026-05-07 17:55 | 37.37839 | 30.40966 | 16999 ft | 270 kts | 3° |
| 2026-05-07 17:55 | 37.39572 | 30.41199 | 16888 ft | 270 kts | 3° |
| 2026-05-07 17:56 | 37.41436 | 30.41449 | 16789 ft | 269 kts | 3° |
| 2026-05-07 17:56 | 37.43295 | 30.41700 | 16666 ft | 268 kts | 3° |
| 2026-05-07 17:56 | 37.45149 | 30.41950 | 16580 ft | 268 kts | 3° |
| 2026-05-07 17:56 | 37.47011 | 30.42202 | 16450 ft | 268 kts | 3° |
| 2026-05-07 17:57 | 37.48869 | 30.42451 | 16335 ft | 268 kts | 3° |
| 2026-05-07 17:57 | 37.50097 | 30.42616 | 16251 ft | 268 kts | 3° |
| 2026-05-07 17:57 | 37.52573 | 30.42951 | 16123 ft | 267 kts | 3° |
| 2026-05-07 17:57 | 37.54427 | 30.43200 | 16019 ft | 267 kts | 3° |
| 2026-05-07 17:58 | 37.56243 | 30.43503 | 15883 ft | 266 kts | 12° |
| 2026-05-07 17:58 | 37.57875 | 30.44609 | 15757 ft | 272 kts | 40° |
| 2026-05-07 17:58 | 37.58987 | 30.46561 | 15620 ft | 280 kts | 64° |
| 2026-05-07 17:58 | 37.59378 | 30.48956 | 15464 ft | 284 kts | 90° |
| 2026-05-07 17:59 | 37.59155 | 30.51446 | 15375 ft | 289 kts | 102° |
| 2026-05-07 17:59 | 37.58301 | 30.53767 | 15242 ft | 297 kts | 128° |
| 2026-05-07 17:59 | 37.56727 | 30.55426 | 15095 ft | 297 kts | 156° |
| 2026-05-07 17:59 | 37.54741 | 30.55962 | 14969 ft | 290 kts | 185° |
| 2026-05-07 18:00 | 37.52752 | 30.55702 | 14856 ft | 286 kts | 189° |
| 2026-05-07 18:00 | 37.50800 | 30.55407 | 14753 ft | 287 kts | 189° |
| 2026-05-07 18:00 | 37.48810 | 30.55117 | 14626 ft | 289 kts | 189° |
| 2026-05-07 18:00 | 37.46809 | 30.54826 | 14496 ft | 290 kts | 188° |
| 2026-05-07 18:01 | 37.44796 | 30.54539 | 14381 ft | 291 kts | 188° |
| 2026-05-07 18:01 | 37.42778 | 30.54256 | 14260 ft | 293 kts | 188° |
| 2026-05-07 18:01 | 37.40754 | 30.53975 | 14120 ft | 292 kts | 188° |
| 2026-05-07 18:01 | 37.38732 | 30.53691 | 14009 ft | 292 kts | 188° |
| 2026-05-07 18:02 | 37.34686 | 30.53128 | 13726 ft | 291 kts | 188° |
| 2026-05-07 18:02 | 37.32676 | 30.52850 | 13585 ft | 290 kts | 188° |
| 2026-05-07 18:02 | 37.30680 | 30.52573 | 13468 ft | 288 kts | 188° |
| 2026-05-07 18:03 | 37.28694 | 30.52298 | 13342 ft | 286 kts | 188° |
| 2026-05-07 18:03 | 37.26749 | 30.52028 | 13223 ft | 283 kts | 188° |
| 2026-05-07 18:03 | 37.24795 | 30.51758 | 13104 ft | 281 kts | 188° |
| 2026-05-07 18:03 | 37.22856 | 30.51494 | 12980 ft | 278 kts | 185° |
| 2026-05-07 18:04 | 37.20963 | 30.51814 | 12858 ft | 279 kts | 155° |
| 2026-05-07 18:04 | 37.19402 | 30.53245 | 12779 ft | 281 kts | 126° |
| 2026-05-07 18:04 | 37.18513 | 30.55401 | 12658 ft | 277 kts | 100° |
| 2026-05-07 18:04 | 37.18264 | 30.57756 | 12547 ft | 271 kts | 92° |
| 2026-05-07 18:05 | 37.18080 | 30.60107 | 12420 ft | 270 kts | 95° |
| 2026-05-07 18:05 | 37.17890 | 30.62438 | 12316 ft | 269 kts | 90° |
| 2026-05-07 18:05 | 37.17756 | 30.64785 | 12205 ft | 270 kts | 92° |
| 2026-05-07 18:05 | 37.17589 | 30.67143 | 12098 ft | 273 kts | 92° |
| 2026-05-07 18:06 | 37.17407 | 30.69517 | 11978 ft | 275 kts | 93° |
| 2026-05-07 18:06 | 37.17222 | 30.71870 | 11852 ft | 272 kts | 93° |
| 2026-05-07 18:06 | 37.16991 | 30.74203 | 11721 ft | 267 kts | 103° |
| 2026-05-07 18:06 | 37.16346 | 30.76382 | 11614 ft | 267 kts | 112° |
| 2026-05-07 18:07 | 37.15539 | 30.78490 | 11518 ft | 269 kts | 114° |
| 2026-05-07 18:07 | 37.14709 | 30.80610 | 11418 ft | 271 kts | 114° |
| 2026-05-07 18:07 | 37.13882 | 30.82751 | 11308 ft | 273 kts | 113° |
| 2026-05-07 18:07 | 37.13074 | 30.84870 | 11201 ft | 274 kts | 113° |
| 2026-05-07 18:08 | 37.12259 | 30.87032 | 11079 ft | 271 kts | 113° |
| 2026-05-07 18:08 | 37.11462 | 30.89163 | 10958 ft | 267 kts | 112° |
| 2026-05-07 18:08 | 37.10682 | 30.91259 | 10839 ft | 264 kts | 112° |
| 2026-05-07 18:08 | 37.09921 | 30.93312 | 10746 ft | 263 kts | 112° |
| 2026-05-07 18:09 | 37.09151 | 30.95388 | 10646 ft | 262 kts | 112° |
| 2026-05-07 18:09 | 37.08385 | 30.97454 | 10538 ft | 261 kts | 113° |
| 2026-05-07 18:09 | 37.07618 | 30.99517 | 10426 ft | 260 kts | 114° |
| 2026-05-07 18:09 | 37.06614 | 31.01339 | 10288 ft | 259 kts | 140° |
| 2026-05-07 18:10 | 37.04981 | 31.02289 | 10209 ft | 263 kts | 172° |
| 2026-05-07 18:10 | 37.03161 | 31.02115 | 10107 ft | 265 kts | 200° |
| 2026-05-07 18:10 | 37.01516 | 31.01110 | 9994 ft | 262 kts | 210° |
| 2026-05-07 18:10 | 36.99932 | 30.99990 | 9861 ft | 261 kts | 210° |
| 2026-05-07 18:11 | 36.98344 | 30.98898 | 9753 ft | 259 kts | 211° |
| 2026-05-07 18:11 | 36.97296 | 30.98175 | 9672 ft | 260 kts | 208° |
| 2026-05-07 18:11 | 36.95121 | 30.96768 | 9521 ft | 265 kts | 208° |
| 2026-05-07 18:11 | 36.93503 | 30.95703 | 9424 ft | 267 kts | 209° |
| 2026-05-07 18:12 | 36.91863 | 30.94612 | 9306 ft | 265 kts | 209° |
| 2026-05-07 18:12 | 36.90227 | 30.93592 | 9152 ft | 260 kts | 199° |
| 2026-05-07 18:12 | 36.88440 | 30.93212 | 8963 ft | 262 kts | 184° |
| 2026-05-07 18:12 | 36.86624 | 30.93082 | 8713 ft | 267 kts | 183° |
| 2026-05-07 18:13 | 36.84762 | 30.92947 | 8455 ft | 268 kts | 184° |
| 2026-05-07 18:13 | 36.82907 | 30.92798 | 8202 ft | 266 kts | 184° |
| 2026-05-07 18:13 | 36.81064 | 30.92636 | 7944 ft | 263 kts | 184° |
| 2026-05-07 18:13 | 36.79271 | 30.92468 | 7694 ft | 260 kts | 185° |
| 2026-05-07 18:14 | 36.77476 | 30.92295 | 7467 ft | 257 kts | 185° |
| 2026-05-07 18:14 | 36.75695 | 30.92121 | 7233 ft | 255 kts | 185° |
| 2026-05-07 18:14 | 36.73927 | 30.91947 | 6986 ft | 253 kts | 185° |
| 2026-05-07 18:14 | 36.72185 | 30.91775 | 6764 ft | 255 kts | 185° |
| 2026-05-07 18:15 | 36.70403 | 30.91600 | 6530 ft | 258 kts | 185° |
| 2026-05-07 18:15 | 36.68602 | 30.91424 | 6284 ft | 260 kts | 184° |
| 2026-05-07 18:15 | 36.66793 | 30.91248 | 6019 ft | 260 kts | 184° |
| 2026-05-07 18:15 | 36.65037 | 30.90883 | 5740 ft | 253 kts | 204° |
| 2026-05-07 18:16 | 36.63702 | 30.89593 | 5527 ft | 244 kts | 235° |
| 2026-05-07 18:16 | 36.62891 | 30.87756 | 5310 ft | 242 kts | 249° |
| 2026-05-07 18:16 | 36.62257 | 30.85844 | 5097 ft | 234 kts | 258° |
| 2026-05-07 18:16 | 36.62261 | 30.83899 | 4844 ft | 220 kts | 293° |
| 2026-05-07 18:17 | 36.63029 | 30.82357 | 4662 ft | 209 kts | 315° |
| 2026-05-07 18:17 | 36.64158 | 30.81246 | 4465 ft | 206 kts | 330° |
| 2026-05-07 18:17 | 36.65409 | 30.80356 | 4285 ft | 209 kts | 332° |
| 2026-05-07 18:17 | 36.66677 | 30.79474 | 4107 ft | 206 kts | 332° |
| 2026-05-07 18:18 | 36.67922 | 30.78627 | 3883 ft | 200 kts | 333° |
| 2026-05-07 18:18 | 36.69111 | 30.77800 | 3703 ft | 196 kts | 330° |
| 2026-05-07 18:18 | 36.70272 | 30.76907 | 3520 ft | 195 kts | 330° |
| 2026-05-07 18:18 | 36.71538 | 30.76373 | 3307 ft | 191 kts | 4° |
| 2026-05-07 18:19 | 36.72815 | 30.76763 | 3206 ft | 191 kts | 14° |
| 2026-05-07 18:19 | 36.74120 | 30.77078 | 2963 ft | 193 kts | 7° |
| 2026-05-07 18:19 | 36.75444 | 30.77271 | 2728 ft | 189 kts | 6° |
| 2026-05-07 18:19 | 36.76755 | 30.77449 | 2482 ft | 188 kts | 6° |
| 2026-05-07 18:20 | 36.78044 | 30.77625 | 2224 ft | 182 kts | 6° |
| 2026-05-07 18:20 | 36.79278 | 30.77799 | 2001 ft | 179 kts | 7° |
| 2026-05-07 18:20 | 36.80510 | 30.78010 | 1767 ft | 179 kts | 5° |
| 2026-05-07 18:20 | 36.81765 | 30.78122 | 1536 ft | 177 kts | 5° |
| 2026-05-07 18:21 | 36.82929 | 30.78285 | 1318 ft | 161 kts | 7° |
| 2026-05-07 18:21 | 36.83986 | 30.78434 | 1088 ft | 143 kts | 7° |
| 2026-05-07 18:21 | 36.84920 | 30.78590 | 942 ft | 139 kts | 10° |
| 2026-05-07 18:21 | 36.85909 | 30.78662 | 746 ft | 146 kts | 8° |
| 2026-05-07 18:22 | 36.86909 | 30.78845 | 532 ft | 143 kts | 8° |
| 2026-05-07 18:22 | 36.87568 | 30.78922 | 410 ft | 145 kts | 8° |
| 2026-05-07 18:22 | 36.88895 | 30.79112 | 191 ft | 142 kts | 8° |
| 2026-05-07 18:22 | 36.89744 | 30.79224 | 194 ft | 94 kts | 7° |
| 2026-05-07 18:23 | 36.90233 | 30.79297 | 195 ft | 34 kts | 6° |
| 2026-05-07 18:23 | 36.90417 | 30.79430 | 202 ft | 13 kts | 37° |
| 2026-05-07 18:23 | 36.90454 | 30.79465 | 201 ft | 4 kts | 37° |
| 2026-05-07 18:23 | 36.90476 | 30.79487 | 204 ft | 5 kts | 38° |
| 2026-05-07 18:24 | 36.90499 | 30.79518 | 188 ft | 5 kts | 64° |
| 2026-05-07 18:24 | 36.90496 | 30.79559 | 204 ft | 5 kts | 115° |
| 2026-05-07 18:24 | 36.90467 | 30.79582 | 204 ft | 5 kts | 167° |
| 2026-05-07 18:24 | 36.90435 | 30.79571 | 201 ft | 3 kts | 206° |
| 2026-05-07 18:25 | 36.90413 | 30.79558 | 201 ft | 5 kts | 206° |
| 2026-05-07 18:25 | 36.90372 | 30.79537 | 194 ft | 8 kts | 194° |
| 2026-05-07 18:25 | 36.90313 | 30.79525 | 198 ft | 10 kts | 187° |
| 2026-05-07 18:25 | 36.90234 | 30.79511 | 196 ft | 13 kts | 188° |
| 2026-05-07 18:26 | 36.90137 | 30.79497 | 189 ft | 15 kts | 184° |
| 2026-05-07 18:26 | 36.90030 | 30.79485 | 194 ft | 16 kts | 186° |
| 2026-05-07 18:26 | 36.89919 | 30.79471 | 200 ft | 16 kts | 186° |
| 2026-05-07 18:26 | 36.89804 | 30.79456 | 191 ft | 17 kts | 187° |
| 2026-05-07 18:27 | 36.89699 | 30.79438 | 195 ft | 8 kts | 183° |
| 2026-05-07 18:27 | 36.89659 | 30.79478 | 193 ft | 8 kts | 108° |
| 2026-05-07 18:27 | 36.89658 | 30.79545 | 186 ft | 8 kts | 92° |
| 2026-05-07 18:27 | 36.89655 | 30.79591 | 186 ft | 8 kts | 95° |
| 2026-05-07 18:28 | 36.89648 | 30.79690 | 194 ft | 9 kts | 96° |
| 2026-05-07 18:28 | 36.89641 | 30.79771 | 186 ft | 10 kts | 96° |
| 2026-05-07 18:28 | 36.89632 | 30.79857 | 197 ft | 10 kts | 97° |
| 2026-05-07 18:28 | 36.89624 | 30.79935 | 193 ft | 2 kts | 98° |
| 2026-05-07 18:29 | 36.89621 | 30.79957 | 195 ft | 3 kts | 98° |
| 2026-05-07 18:29 | 36.89619 | 30.79988 | 200 ft | 4 kts | 87° |
| 2026-05-07 18:29 | 36.89630 | 30.80020 | 200 ft | 4 kts | 58° |
| 2026-05-07 18:29 | 36.89653 | 30.80044 | 192 ft | 5 kts | 37° |
| 2026-05-07 18:30 | 36.89681 | 30.80066 | 196 ft | 2 kts | 30° |
| 2026-05-07 18:30 | 36.89693 | 30.80074 | 198 ft | 2 kts | 30° |
| 2026-05-07 18:30 | 36.89697 | 30.80077 | 199 ft | 0 kts | 30° |